Hlavní strana
METAR-TAF:

METAR-TAF

Letiště :

Karáčí, Pákistán

Mezinárodní letiště Džinnáh

zeměpisná šířka: 24-54N, zeměpisná délka: 067-08E, výška: 21 m

Aktuální stav počasí

Zpráva byla vytvořena před 46 minutami, v 06:53 UTC
Západoseverozápadní vítr 5 kt
Teplota 37°C
Vlhkost vzduchu 10%
Tlak 1011 hPa
Viditelnost: 7000 m

METAR: OPKC 230653Z 29005KT 7000 NSC 37/01 Q1011 NOSIG

Čas: 12:39 (07:39 UTC)

Předpověď počasí

Zpráva byla vytvořena před 3 hodinami a 39 minutami, v 04:00 UTC
Předpověď platná od 23 v 06 UTC do 24 v 12 UTC
Západoseverozápadní vítr 5 kt s nárazy do 15 kt
Viditelnost: 6000 m
Od 23 v 1800 UTC
Jihozápadní vítr 6 kt
Viditelnost: 5000 m
zákal
Dočasný
od 24 v 00 UTC do 24 v 04 UTC
Západojihozápadní vítr 5 kt
Viditelnost: 4000 m
zákal

TAF: OPKC 230400Z 2306/2412 29005G15KT 6000 NSC FM231800 23006KT 5000 HZ NSC TEMPO 2400/2404 24005KT 4000 HZ NSC

Stav a předpovědi počasí z více než 4 000 letišť (zprávy METAR a TAF).

Červené a žluté tečky na mapě představují dostupné meteorologické stanice.

Když kurzor umístíte na tečku, zobrazí se název stanice.

Pak kliknutím zobrazíte stav a předpověď počasí.

Chcete-li změnit mapu, kliknutím na zelené tlačítko se znaménkem +mapu přiblížíte, kliknutím na zelené tlačítko se znaménkem – mapu oddálíte a kliknutím na zelené šipky přejdete na sousední mapy.


METAR-TAF: